• Join FlightAware (Why Join?)
  • Login
  • US Flag 
03:46AM EDT


 

Airport Tracker/Info


-or-


 

Live Flight TrackerFlight Track Log ✈ PCM7679 ✈ 04-May-2012 ✈ KMRY - KOAK

Flight Track Log - Related Links

Times and Time Zones

All times are in EDT time to prevent confusion due to time zone crossing. See the PCM7679 flight status page for this flight to view local times or setup timezone preferences in your user account.

Time Position Orientation Groundspeed Altitude Reporting Facility
EDT Latitude Longitude Course Direction KTS MPH feet Rate Location/Type
08:40PM 36.5853 -121.8262 314° West  Level FlightAware Approximate
08:41PM 36.6167 -121.8667 22° Northeast 120 138 2,200  Level Northern Cal TRACON
08:42PM 36.6500 -121.8500 39° Northeast 134 154 3,100 840 Climbing Northern Cal TRACON
08:43PM 36.6833 -121.8167 58° Northeast 129 148 3,900 780 Climbing Northern Cal TRACON
08:44PM 36.7000 -121.7833 22° Northeast 137 158 4,700 660 Climbing Northern Cal TRACON
08:45PM 36.7333 -121.7667 39° Northeast 140 161 5,300 600 Climbing Northern Cal TRACON
08:46PM 36.7667 -121.7333 58° Northeast 135 155 6,000 660 Climbing Northern Cal TRACON
08:47PM 36.7833 -121.7000 39° Northeast 136 157 6,700 420 Climbing Northern Cal TRACON
08:48PM 36.8167 -121.6667 50° Northeast 155 178 6,900 60 Climbing Northern Cal TRACON
08:49PM 36.8500 -121.6167 360° North 158 182 6,900  Level Northern Cal TRACON
08:50PM 36.9000 -121.6167 22° Northeast 152 175 6,900  Level Northern Cal TRACON
08:51PM 36.9333 -121.6000 360° North 156 180 6,900  Level Northern Cal TRACON
08:52PM 36.9833 -121.6000 15° North 154 177 6,900  Level Northern Cal TRACON
08:53PM 37.0333 -121.5833 360° North 152 175 6,900 -300 Level Northern Cal TRACON
08:54PM 37.0667 -121.5833 360° North 166 191 6,400 -480 Descending Northern Cal TRACON
08:55PM 37.1167 -121.5833 360° North 166 191 6,000 -240 Descending Northern Cal TRACON
08:56PM 37.1667 -121.5833 360° North 161 185 6,000  Level Northern Cal TRACON
08:57PM 37.2000 -121.5833 15° North 160 184 6,000  Level Northern Cal TRACON
08:58PM 37.2500 -121.5667 360° North 159 183 6,000  Level Northern Cal TRACON
08:59PM 37.3000 -121.5667 360° North 161 185 6,000  Level Northern Cal TRACON
09:00PM 37.3333 -121.5667 360° North 159 183 6,100  Climbing Northern Cal TRACON
09:01PM 37.3833 -121.5667 322° Northwest 165 190 6,000 -60 Descending Northern Cal TRACON
09:02PM 37.4167 -121.6000 322° Northwest 160 184 6,000  Level Northern Cal TRACON
09:03PM 37.4500 -121.6333 310° West 158 182 6,000  Level Northern Cal TRACON
09:04PM 37.4833 -121.6833 302° West 154 177 6,100  Climbing Northern Cal TRACON
09:05PM 37.5000 -121.7167 310° West 152 175 6,100 -60 Level Northern Cal TRACON
09:06PM 37.5333 -121.7667 302° West 153 176 6,000 -300 Descending Northern Cal TRACON
09:07PM 37.5500 -121.8000 302° West 163 188 5,600 -600 Descending Northern Cal TRACON
09:08PM 37.5833 -121.8667 302° West 168 193 4,900 -780 Descending Northern Cal TRACON
09:09PM 37.6000 -121.9000 310° West 164 189 4,100 -600 Descending Northern Cal TRACON
09:10PM 37.6333 -121.9500 293° West 157 181 3,800 -360 Descending Northern Cal TRACON
09:11PM 37.6500 -122.0000 293° West 156 180 3,400 -480 Descending Northern Cal TRACON
09:12PM 37.6667 -122.0500 293° West 163 188 2,900 -600 Descending Northern Cal TRACON
09:13PM 37.6833 -122.1000 293° West 157 181 2,300 -780 Descending Northern Cal TRACON
09:14PM 37.7000 -122.1500 293° West 162 186 1,400 -900 Descending Northern Cal TRACON